createdAt,value
2022-10-27T00:03:57.781Z,7.07
2022-10-27T00:10:45.181Z,8.83
2022-10-27T00:17:34.623Z,9.32
2022-10-27T00:24:20.062Z,8.18
2022-10-27T00:31:09.789Z,7.37
2022-10-27T00:37:57.743Z,7.80
2022-10-27T00:44:45.409Z,7.40
2022-10-27T00:51:30.990Z,6.65
2022-10-27T00:58:22.420Z,7.07
2022-10-27T01:05:14.669Z,6.40
2022-10-27T01:12:00.050Z,6.70
2022-10-27T01:19:01.511Z,6.22
2022-10-27T01:26:47.025Z,6.30
2022-10-27T01:33:43.675Z,6.93
2022-10-27T01:40:35.275Z,5.70
2022-10-27T01:47:20.899Z,6.25
2022-10-27T01:54:09.879Z,6.47
2022-10-27T02:08:43.883Z,5.90
2022-10-27T02:15:40.709Z,6.63
2022-10-27T02:22:29.530Z,5.97
2022-10-27T02:29:20.116Z,6.30
2022-10-27T02:36:09.101Z,7.03
2022-10-27T02:42:54.652Z,6.57
2022-10-27T03:03:30.737Z,6.40
2022-10-27T03:10:16.173Z,6.25
2022-10-27T03:17:02.013Z,6.43
2022-10-27T03:23:49.981Z,6.80
2022-10-27T03:30:35.376Z,6.85
2022-10-27T03:37:20.764Z,6.55
2022-10-27T03:44:08.896Z,6.35
2022-10-27T03:50:54.786Z,6.55
2022-10-27T03:57:40.146Z,6.37
2022-10-27T04:04:28.102Z,6.22
2022-10-27T04:11:13.481Z,6.20
2022-10-27T04:18:00.973Z,6.70
2022-10-27T04:24:48.900Z,6.20
2022-10-27T04:31:34.233Z,5.65
2022-10-27T04:38:19.625Z,6.03
2022-10-27T04:45:08.712Z,5.90
2022-10-27T04:51:54.062Z,6.00
2022-10-27T04:58:39.485Z,5.95
2022-10-27T05:05:30.186Z,5.88
2022-10-27T05:12:15.533Z,5.72
2022-10-27T05:19:00.909Z,6.10
2022-10-27T05:25:53.847Z,6.40
2022-10-27T05:32:43.303Z,6.50
2022-10-27T05:39:32.671Z,6.40
2022-10-27T05:46:20.610Z,5.47
2022-10-27T05:53:06.680Z,5.32
2022-10-27T05:59:52.013Z,5.72
2022-10-27T06:06:39.941Z,5.63
2022-10-27T06:13:25.279Z,5.97
2022-10-27T06:20:12.403Z,6.00
2022-10-27T06:27:00.358Z,5.80
2022-10-27T06:33:45.954Z,6.15
2022-10-27T06:40:31.433Z,5.82
2022-10-27T06:47:19.434Z,6.82
2022-10-27T06:54:04.840Z,7.95
2022-10-27T07:00:50.180Z,8.20
2022-10-27T07:07:38.932Z,7.45
2022-10-27T07:14:24.307Z,7.63
2022-10-27T07:21:09.944Z,7.47
2022-10-27T07:27:58.565Z,7.25
2022-10-27T07:34:44.040Z,6.70
2022-10-27T07:41:29.388Z,6.70
2022-10-27T07:48:19.056Z,6.75
2022-10-27T07:55:04.375Z,6.50
2022-10-27T08:01:49.863Z,6.85
2022-10-27T08:08:37.803Z,7.40
2022-10-27T08:15:23.399Z,6.97
2022-10-27T08:22:13.053Z,7.78
2022-10-27T08:29:02.075Z,8.40
2022-10-27T08:35:47.447Z,7.70
2022-10-27T08:42:44.803Z,8.02
2022-10-27T08:49:43.452Z,8.48
2022-10-27T08:56:41.571Z,7.18
2022-10-27T09:03:47.739Z,7.45
2022-10-27T09:10:46.112Z,9.07
2022-10-27T09:17:35.397Z,9.25
2022-10-27T09:24:26.616Z,10.00
2022-10-27T09:31:20.321Z,11.07
2022-10-27T09:38:05.768Z,10.80
2022-10-27T09:44:59.322Z,10.52
2022-10-27T09:51:53.185Z,10.38
2022-10-27T09:58:51.882Z,11.02
2022-10-27T10:05:40.328Z,10.65
2022-10-27T10:12:29.458Z,11.60
2022-10-27T10:19:21.048Z,10.90
2022-10-27T10:26:20.551Z,11.77
2022-10-27T10:33:10.354Z,11.82
2022-10-27T10:39:55.718Z,12.57
2022-10-27T10:46:44.987Z,11.57
2022-10-27T10:53:38.612Z,13.38
2022-10-27T11:00:25.420Z,13.35
2022-10-27T11:07:23.888Z,13.98
2022-10-27T11:14:18.849Z,16.88
2022-10-27T11:21:13.180Z,17.73
2022-10-27T11:28:05.833Z,18.60
2022-10-27T11:35:07.527Z,17.40
2022-10-27T11:42:01.172Z,18.85
2022-10-27T11:48:54.466Z,17.80
2022-10-27T11:56:04.183Z,20.35
2022-10-27T12:17:39.887Z,19.15
2022-10-27T12:24:33.488Z,18.02
2022-10-27T12:31:27.865Z,17.98
2022-10-27T12:38:21.375Z,17.63
2022-10-27T12:45:35.251Z,17.30
2022-10-27T12:52:26.034Z,16.15
2022-10-27T12:59:26.854Z,15.45
2022-10-27T13:06:33.343Z,16.48
2022-10-27T13:20:58.187Z,13.38
2022-10-27T13:27:50.985Z,13.45
2022-10-27T13:34:39.280Z,12.95
2022-10-27T13:41:53.208Z,11.95
2022-10-27T13:48:38.602Z,12.13
2022-10-27T13:55:39.870Z,12.70
2022-10-27T14:02:37.543Z,12.32
2022-10-27T14:09:32.897Z,11.43
2022-10-27T14:16:26.876Z,11.87
2022-10-27T14:23:16.793Z,11.32
2022-10-27T14:30:20.596Z,10.60
2022-10-27T14:37:12.993Z,9.77
2022-10-27T14:44:02.714Z,9.02
2022-10-27T14:50:48.768Z,9.77
2022-10-27T14:57:39.506Z,12.05
2022-10-27T15:04:27.322Z,12.15
2022-10-27T15:11:19.881Z,12.25
2022-10-27T15:25:24.707Z,11.75
2022-10-27T15:32:22.270Z,12.18
2022-10-27T15:39:20.496Z,11.45
2022-10-27T15:46:17.630Z,11.85
2022-10-27T15:53:17.201Z,11.40
2022-10-27T16:00:25.323Z,12.88
2022-10-27T16:07:33.905Z,12.65
2022-10-27T16:14:19.625Z,11.65
2022-10-27T16:21:07.949Z,12.95
2022-10-27T16:27:53.633Z,19.88
2022-10-27T16:34:38.987Z,17.45
2022-10-27T16:41:31.512Z,16.27
2022-10-27T16:48:17.697Z,15.13
2022-10-27T16:55:06.040Z,17.90
2022-10-27T17:01:54.142Z,19.92
2022-10-27T17:08:40.988Z,17.70
2022-10-27T17:15:26.334Z,16.65
2022-10-27T17:22:14.296Z,15.43
2022-10-27T17:28:59.919Z,18.85
2022-10-27T17:35:45.253Z,11.93
2022-10-27T17:42:33.558Z,10.17
2022-10-27T17:49:18.992Z,10.57
2022-10-27T17:56:06.517Z,13.30
2022-10-27T18:02:57.689Z,11.75
2022-10-27T18:09:45.150Z,10.57
2022-10-27T18:16:34.286Z,10.63
2022-10-27T18:23:22.404Z,11.25
2022-10-27T18:30:09.739Z,10.48
2022-10-27T18:36:55.109Z,15.45
2022-10-27T18:43:45.452Z,12.30
2022-10-27T18:50:30.922Z,11.80
2022-10-27T18:57:16.668Z,11.67
2022-10-27T19:04:08.377Z,11.18
2022-10-27T19:10:55.891Z,11.60
2022-10-27T19:17:44.589Z,10.35
2022-10-27T19:24:32.898Z,9.38
2022-10-27T19:31:21.664Z,8.45
2022-10-27T19:38:07.138Z,8.10
2022-10-27T19:44:55.583Z,7.67
2022-10-27T19:51:42.257Z,7.80
2022-10-27T19:58:27.642Z,8.18
2022-10-27T20:05:15.601Z,9.23
2022-10-27T20:12:02.566Z,10.25
2022-10-27T20:18:48.690Z,9.30
2022-10-27T20:32:22.500Z,12.48
2022-10-27T20:39:09.579Z,10.87
2022-10-27T20:46:00.541Z,11.50
2022-10-27T20:52:46.421Z,11.65
2022-10-27T20:59:31.769Z,11.07
2022-10-27T21:06:19.716Z,11.03
2022-10-27T21:13:05.136Z,10.82
2022-10-27T21:19:50.516Z,11.17
2022-10-27T21:26:38.732Z,9.87
2022-10-27T21:33:24.077Z,10.00
2022-10-27T21:40:12.218Z,10.03
2022-10-27T21:47:00.199Z,10.40
2022-10-27T21:53:46.285Z,9.02
2022-10-27T22:00:31.744Z,9.70
2022-10-27T22:07:19.801Z,8.87
2022-10-27T22:14:05.694Z,9.10
2022-10-27T22:20:51.093Z,9.85
2022-10-27T22:27:39.114Z,9.43
2022-10-27T22:34:24.460Z,8.95
2022-10-27T22:41:12.908Z,8.90
2022-10-27T22:48:01.543Z,8.90
2022-10-27T22:54:46.918Z,8.30
2022-10-27T23:01:34.974Z,8.47
2022-10-27T23:08:23.025Z,8.30
2022-10-27T23:15:09.918Z,8.20
2022-10-27T23:21:55.288Z,8.90
2022-10-27T23:28:43.233Z,9.17
2022-10-27T23:35:28.661Z,8.80
2022-10-27T23:42:14.009Z,8.13
2022-10-27T23:49:02.426Z,8.77
2022-10-27T23:55:47.853Z,8.43
